Time;durP1;ratioP1;P1;durP2;ratioP2;P2;SDS_P1;SDS_P2;PMS_P1;PMS_P2;Temp;Humidity;BMP_temperature;BMP_pressure;BME280_temperature;BME280_humidity;BME280_pressure;Samples;Min_cycle;Max_cycle;Signal;HPM_P1;HPM_P2
2021/06/12 00:00:17;;;;;;;8.48;4.53;;;;;;;14.55;76.08;97620.69;1626323;87;21026;-72
2021/06/12 00:02:46;;;;;;;7.30;4.85;;;;;;;14.47;76.02;97615.75;1628037;87;21467;-72
2021/06/12 00:05:13;;;;;;;6.55;4.80;;;;;;;14.44;76.24;97615.90;1626268;88;21101;-73
2021/06/12 00:07:40;;;;;;;9.20;4.55;;;;;;;14.38;76.62;97625.94;1625873;88;21026;-73
2021/06/12 00:10:12;;;;;;;6.92;4.53;;;;;;;14.31;76.42;97629.00;1626173;87;21009;-74
2021/06/12 00:12:39;;;;;;;9.38;4.97;;;;;;;14.24;76.18;97624.44;1628173;87;21054;-73
2021/06/12 00:15:10;;;;;;;8.03;5.15;;;;;;;14.18;76.34;97625.63;1626136;88;21005;-73
2021/06/12 00:17:38;;;;;;;6.55;5.28;;;;;;;14.10;77.04;97620.69;1626136;88;21057;-74
2021/06/12 00:20:08;;;;;;;8.38;5.58;;;;;;;14.02;76.33;97615.33;1626251;88;21021;-73
2021/06/12 00:22:34;;;;;;;8.43;5.20;;;;;;;13.95;76.35;97618.31;1627394;87;21033;-73
2021/06/12 00:25:01;;;;;;;7.62;5.10;;;;;;;13.86;76.62;97620.09;1626168;88;21045;-74
2021/06/12 00:27:28;;;;;;;8.30;5.53;;;;;;;13.81;76.74;97624.33;1626615;88;21479;-78
2021/06/12 00:29:55;;;;;;;8.15;5.47;;;;;;;13.75;76.73;97619.30;1645929;86;21016;-73
2021/06/12 00:32:21;;;;;;;6.22;5.60;;;;;;;13.70;76.61;97618.18;1642669;87;20993;-73
2021/06/12 00:34:48;;;;;;;8.23;5.20;;;;;;;13.67;76.79;97612.15;1657118;87;21538;-73
2021/06/12 00:37:14;;;;;;;6.67;5.50;;;;;;;13.66;77.06;97612.61;1657050;85;20986;-73
2021/06/12 00:39:41;;;;;;;5.75;5.12;;;;;;;13.67;76.97;97610.81;1657176;86;21029;-73
2021/06/12 00:42:08;;;;;;;8.43;4.78;;;;;;;13.64;77.61;97606.95;1648029;87;21041;-73
2021/06/12 00:44:34;;;;;;;7.62;5.12;;;;;;;13.58;77.39;97613.46;1630417;88;21669;-73
2021/06/12 00:47:01;;;;;;;5.55;4.83;;;;;;;13.55;77.62;97612.27;1630447;88;21041;-73
2021/06/12 00:49:27;;;;;;;6.17;4.85;;;;;;;13.49;78.94;97609.42;1630570;88;21462;-73
2021/06/12 00:51:54;;;;;;;5.60;4.70;;;;;;;13.48;78.28;97601.05;1636727;87;20978;-73
2021/06/12 00:54:21;;;;;;;5.20;4.67;;;;;;;13.50;78.48;97608.97;1657206;87;21040;-73
2021/06/12 00:56:48;;;;;;;6.97;4.30;;;;;;;13.48;78.66;97607.70;1657205;87;21057;-74
2021/06/12 00:59:14;;;;;;;8.55;4.50;;;;;;;13.50;79.01;97601.85;1656995;86;20990;-74
2021/06/12 01:01:43;;;;;;;6.22;4.50;;;;;;;13.50;79.00;97610.30;1642938;86;21119;-73
2021/06/12 01:04:09;;;;;;;4.78;3.98;;;;;;;13.52;79.59;97607.08;1634104;88;21620;-73
2021/06/12 01:06:36;;;;;;;8.90;4.47;;;;;;;13.54;79.59;97613.21;1633851;87;21044;-74
2021/06/12 01:09:03;;;;;;;6.47;3.92;;;;;;;13.57;80.68;97611.71;1627248;86;21067;-73
2021/06/12 01:11:36;;;;;;;7.05;4.62;;;;;;;13.55;81.08;97603.83;1657212;87;21069;-74
2021/06/12 01:14:14;;;;;;;6.67;4.37;;;;;;;13.58;80.58;97606.32;1657159;87;20998;-73
2021/06/12 01:17:04;;;;;;;6.08;3.98;;;;;;;13.62;80.33;97607.03;1660058;86;21047;-74
2021/06/12 01:20:02;;;;;;;8.98;4.53;;;;;;;13.66;80.27;97611.76;1645260;87;21592;-73
2021/06/12 01:22:44;;;;;;;7.33;3.90;;;;;;;13.66;79.88;97606.44;1630440;88;21057;-74
2021/06/12 01:26:03;;;;;;;4.28;3.80;;;;;;;13.63;79.78;97606.11;1630217;88;21050;-74
2021/06/12 01:28:44;;;;;;;6.75;4.60;;;;;;;13.56;80.02;97604.21;1630695;87;21367;-74
2021/06/12 01:31:12;;;;;;;5.53;4.83;;;;;;;13.44;80.08;97594.10;1582901;91;21496;-74
2021/06/12 01:33:43;;;;;;;9.15;3.87;;;;;;;13.38;79.88;97595.28;1582773;90;21091;-74
2021/06/12 01:36:12;;;;;;;4.62;4.10;;;;;;;13.34;80.81;97594.54;1604701;89;21411;-73
2021/06/12 01:38:44;;;;;;;5.08;4.42;;;;;;;13.27;82.03;97598.44;1618182;86;21497;-74
2021/06/12 01:41:15;;;;;;;7.78;4.17;;;;;;;13.20;81.70;97599.19;1673137;86;21453;-74
2021/06/12 01:43:43;;;;;;;6.95;4.47;;;;;;;13.10;82.18;97593.03;1671062;86;21012;-74
2021/06/12 01:46:12;;;;;;;7.10;4.65;;;;;;;13.03;81.33;97595.11;1673628;86;21536;-74
2021/06/12 01:48:45;;;;;;;6.40;4.50;;;;;;;13.00;81.25;97596.59;1672353;86;21001;-74
2021/06/12 01:51:13;;;;;;;6.33;5.10;;;;;;;12.93;81.69;97602.20;1646458;87;21084;-74
2021/06/12 01:53:42;;;;;;;7.83;5.50;;;;;;;12.86;81.40;97595.42;1646495;87;21055;-74
2021/06/12 01:56:12;;;;;;;6.65;5.30;;;;;;;12.77;83.34;97593.17;1646337;87;21390;-73
2021/06/12 01:58:43;;;;;;;7.00;5.05;;;;;;;12.73;81.57;97590.25;1682266;84;20969;-74
2021/06/12 02:01:16;;;;;;;7.30;5.83;;;;;;;12.69;82.63;97590.86;1708538;84;21040;-74
2021/06/12 02:03:46;;;;;;;7.12;5.28;;;;;;;12.65;82.91;97587.94;1708807;84;21013;-73
2021/06/12 02:06:18;;;;;;;6.12;5.45;;;;;;;12.62;81.44;97586.28;1708734;84;21009;-74
2021/06/12 02:08:47;;;;;;;8.28;5.03;;;;;;;12.59;81.37;97589.09;1706969;84;21127;-74
2021/06/12 02:11:17;;;;;;;7.70;5.00;;;;;;;12.56;81.07;97589.22;1680278;85;21032;-74
2021/06/12 02:13:47;;;;;;;7.70;5.47;;;;;;;12.52;81.44;97592.48;1680217;85;21069;-74
2021/06/12 02:16:15;;;;;;;6.40;5.62;;;;;;;12.49;81.48;97590.41;1680270;85;21506;-74
2021/06/12 02:18:45;;;;;;;7.78;5.33;;;;;;;12.45;81.56;97594.16;1680747;84;21402;-74
2021/06/12 02:21:15;;;;;;;6.37;4.97;;;;;;;12.42;81.56;97589.84;1708753;84;20977;-74
2021/06/12 02:23:42;;;;;;;7.90;5.47;;;;;;;12.41;81.95;97589.42;1708619;84;21004;-74
2021/06/12 02:26:10;;;;;;;8.68;5.60;;;;;;;12.37;81.56;97587.84;1708616;83;20965;-74
2021/06/12 02:28:38;;;;;;;8.03;5.62;;;;;;;12.31;83.14;97591.63;1708655;84;20985;-74
2021/06/12 02:31:09;;;;;;;7.78;5.83;;;;;;;12.28;82.25;97587.31;1694944;84;21043;-74
2021/06/12 02:33:37;;;;;;;6.62;5.45;;;;;;;12.28;81.63;97589.97;1708834;84;21423;-74
2021/06/12 02:36:05;;;;;;;7.00;6.12;;;;;;;12.31;82.07;97580.13;1708481;84;21005;-74
2021/06/12 02:38:32;;;;;;;7.72;5.37;;;;;;;12.30;82.02;97581.05;1708625;84;20986;-74
2021/06/12 02:41:00;;;;;;;6.92;5.45;;;;;;;12.32;81.68;97584.50;1667845;85;21086;-74
2021/06/12 02:43:28;;;;;;;8.75;4.92;;;;;;;12.36;81.52;97578.13;1665800;85;21024;-74
2021/06/12 02:45:55;;;;;;;6.47;5.10;;;;;;;12.39;82.66;97581.98;1668164;85;21015;-75
2021/06/12 02:48:25;;;;;;;7.03;4.78;;;;;;;12.42;84.05;97583.20;1666947;85;21069;-73
2021/06/12 02:50:52;;;;;;;6.03;4.40;;;;;;;12.48;82.64;97585.58;1690313;85;21025;-74
2021/06/12 02:53:24;;;;;;;7.80;5.25;;;;;;;12.56;82.77;97589.22;1744006;82;21016;-74
2021/06/12 02:55:56;;;;;;;7.08;4.60;;;;;;;12.61;83.46;97590.33;1718977;82;21000;-73
2021/06/12 02:58:25;;;;;;;6.58;4.70;;;;;;;12.64;83.60;97584.89;1743965;82;21072;-74
2021/06/12 03:00:55;;;;;;;7.03;4.40;;;;;;;12.69;83.19;97592.20;1719568;82;20968;-73
2021/06/12 03:03:22;;;;;;;7.17;4.47;;;;;;;12.74;83.10;97594.18;1716709;84;21119;-73
2021/06/12 03:05:56;;;;;;;7.92;4.90;;;;;;;12.74;83.24;97595.51;1716605;84;21051;-74
2021/06/12 03:08:36;;;;;;;7.25;4.42;;;;;;;12.70;83.48;97595.24;1716334;83;21059;-74
2021/06/12 03:11:06;;;;;;;6.30;4.17;;;;;;;12.70;83.29;97601.05;1741583;82;20965;-74
2021/06/12 03:13:36;;;;;;;5.80;4.70;;;;;;;12.73;83.06;97599.56;1718795;82;21048;-74
2021/06/12 03:16:04;;;;;;;5.55;4.65;;;;;;;12.74;83.15;97600.83;1743977;82;21414;-74
2021/06/12 03:18:32;;;;;;;6.30;4.60;;;;;;;12.75;82.81;97603.03;1743695;82;21064;-74
2021/06/12 03:21:01;;;;;;;5.42;4.78;;;;;;;12.77;82.63;97599.38;1717588;82;20968;-74
2021/06/12 03:23:30;;;;;;;8.80;4.40;;;;;;;12.77;82.79;97604.69;1714429;84;21076;-73
2021/06/12 03:25:58;;;;;;;5.80;4.58;;;;;;;12.82;82.18;97604.95;1714341;84;21001;-73
2021/06/12 03:28:26;;;;;;;6.37;4.42;;;;;;;12.83;81.92;97606.19;1714537;84;21035;-73
2021/06/12 03:30:54;;;;;;;6.90;4.03;;;;;;;12.87;81.33;97605.13;1739220;82;21037;-73
2021/06/12 03:33:20;;;;;;;5.72;4.70;;;;;;;12.88;82.23;97603.34;1743886;82;21036;-73
2021/06/12 03:35:47;;;;;;;8.20;5.08;;;;;;;12.87;82.65;97602.95;1744103;82;21020;-74
2021/06/12 03:38:15;;;;;;;8.15;4.85;;;;;;;12.89;82.17;97608.59;1725748;82;21064;-73
2021/06/12 03:40:43;;;;;;;6.28;5.00;;;;;;;12.89;82.36;97604.61;1716744;83;21028;-73
2021/06/12 03:43:12;;;;;;;9.80;5.45;;;;;;;12.91;81.36;97609.83;1695667;83;21067;-73
2021/06/12 03:45:42;;;;;;;7.90;5.20;;;;;;;12.90;81.16;97612.97;1688040;85;21052;-74
2021/06/12 03:48:11;;;;;;;7.12;5.40;;;;;;;12.93;81.78;97605.32;1687760;85;20992;-74
2021/06/12 03:50:42;;;;;;;6.55;5.40;;;;;;;12.94;81.28;97605.26;1640932;87;21051;-74
2021/06/12 03:53:09;;;;;;;7.40;5.67;;;;;;;12.96;80.65;97613.63;1716438;84;20956;-74
2021/06/12 03:55:36;;;;;;;7.30;5.15;;;;;;;12.98;80.68;97611.30;1716723;83;21012;-74
2021/06/12 03:58:03;;;;;;;8.10;5.50;;;;;;;13.00;81.84;97612.07;1677438;85;21042;-73
2021/06/12 04:00:31;;;;;;;7.33;5.60;;;;;;;13.02;80.81;97622.20;1659809;85;21483;-73
2021/06/12 04:02:58;;;;;;;10.25;5.75;;;;;;;13.05;80.63;97615.87;1673951;86;21031;-74
2021/06/12 04:05:25;;;;;;;7.05;5.25;;;;;;;13.09;80.70;97620.58;1670482;86;21039;-73
2021/06/12 04:07:51;;;;;;;8.05;4.90;;;;;;;13.11;80.88;97628.88;1675857;85;20970;-73
2021/06/12 04:10:18;;;;;;;7.67;5.65;;;;;;;13.14;80.64;97627.42;1657693;86;21049;-74
2021/06/12 04:12:45;;;;;;;6.55;5.37;;;;;;;13.22;80.36;97623.08;1648724;86;21541;-74
2021/06/12 04:15:12;;;;;;;7.25;5.12;;;;;;;13.28;80.11;97626.77;1670252;86;21092;-74
2021/06/12 04:17:44;;;;;;;5.70;5.00;;;;;;;13.33;80.10;97632.74;1656267;86;21067;-73
2021/06/12 04:20:13;;;;;;;8.80;5.33;;;;;;;13.41;79.67;97638.19;1668778;85;21098;-77
2021/06/12 04:22:41;;;;;;;7.90;5.08;;;;;;;13.45;79.57;97631.30;1648620;86;21036;-77
2021/06/12 04:25:10;;;;;;;8.85;5.15;;;;;;;13.53;79.53;97630.97;1657838;86;21096;-75
2021/06/12 04:27:36;;;;;;;6.75;4.80;;;;;;;13.58;79.34;97635.61;1653302;86;21410;-77
2021/06/12 04:30:04;;;;;;;9.68;5.30;;;;;;;13.63;79.09;97635.86;1662380;86;20993;-78
2021/06/12 04:32:30;;;;;;;6.25;5.05;;;;;;;13.69;78.84;97632.89;1629949;87;21030;-77
2021/06/12 04:34:57;;;;;;;5.67;4.78;;;;;;;13.73;79.14;97635.81;1652515;85;21040;-77
2021/06/12 04:37:23;;;;;;;5.42;4.92;;;;;;;13.77;78.80;97634.73;1663225;85;21420;-77
2021/06/12 04:39:50;;;;;;;8.50;5.03;;;;;;;13.83;78.39;97647.73;1681180;84;21012;-78
2021/06/12 04:42:17;;;;;;;6.00;5.00;;;;;;;13.89;78.03;97651.05;1677664;85;21018;-77
2021/06/12 04:44:43;;;;;;;7.37;5.08;;;;;;;13.95;77.86;97651.61;1661984;86;20998;-77
2021/06/12 04:47:10;;;;;;;5.53;4.95;;;;;;;14.03;77.64;97655.72;1661698;86;21098;-77
2021/06/12 04:49:37;;;;;;;16.00;10.38;;;;;;;14.09;77.69;97656.73;1677164;85;21408;-77
2021/06/12 04:52:04;;;;;;;36.48;26.62;;;;;;;14.18;77.20;97661.61;1661910;86;21024;-77
2021/06/12 04:54:31;;;;;;;9.25;5.20;;;;;;;14.25;76.82;97664.35;1678534;85;20996;-77
2021/06/12 04:56:58;;;;;;;5.53;4.40;;;;;;;14.33;76.78;97663.96;1638197;87;21609;-78
2021/06/12 04:59:25;;;;;;;6.47;4.65;;;;;;;14.39;76.58;97661.02;1640501;86;21361;-77
2021/06/12 05:01:51;;;;;;;6.53;4.45;;;;;;;14.46;76.22;97660.23;1640899;86;21060;-78
2021/06/12 05:04:18;;;;;;;7.10;4.87;;;;;;;14.54;75.94;97665.17;1658695;86;21452;-77
2021/06/12 05:06:44;;;;;;;6.05;5.10;;;;;;;14.57;75.30;97661.48;1667060;86;21051;-78
2021/06/12 05:09:11;;;;;;;9.30;4.90;;;;;;;14.62;75.42;97660.78;1687918;85;21085;-75
2021/06/12 05:11:38;;;;;;;8.03;5.22;;;;;;;14.69;75.41;97663.99;1695851;85;20959;-75
2021/06/12 05:14:04;;;;;;;6.28;4.58;;;;;;;14.75;75.32;97665.88;1696475;85;21006;-75
2021/06/12 05:16:33;;;;;;;6.70;4.55;;;;;;;14.83;75.18;97669.97;1696446;85;21057;-75
2021/06/12 05:18:59;;;;;;;4.80;4.35;;;;;;;14.91;75.10;97667.28;1678868;85;21001;-75
2021/06/12 05:21:27;;;;;;;6.90;4.62;;;;;;;14.98;74.99;97663.81;1668095;86;20993;-77
2021/06/12 05:23:54;;;;;;;6.37;4.70;;;;;;;15.05;74.90;97672.36;1643939;86;21398;-75
2021/06/12 05:26:21;;;;;;;7.97;4.78;;;;;;;15.12;74.63;97668.91;1667246;86;21363;-75
2021/06/12 05:28:49;;;;;;;5.97;4.33;;;;;;;15.21;74.36;97668.41;1682293;85;20978;-75
2021/06/12 05:31:19;;;;;;;6.72;4.33;;;;;;;15.33;73.78;97665.55;1695541;85;21010;-75
2021/06/12 05:33:47;;;;;;;7.17;4.15;;;;;;;15.43;73.51;97669.44;1664840;86;21434;-76
2021/06/12 05:36:14;;;;;;;7.05;4.30;;;;;;;15.54;73.54;97665.31;1645526;85;21529;-76
2021/06/12 05:38:42;;;;;;;7.15;4.40;;;;;;;15.64;73.73;97657.17;1666674;85;21009;-76
2021/06/12 05:41:09;;;;;;;4.17;3.77;;;;;;;15.75;73.80;97661.05;1714237;84;21525;-76
2021/06/12 05:43:36;;;;;;;5.37;4.00;;;;;;;15.89;73.47;97673.63;1714619;83;20989;-76
2021/06/12 05:46:02;;;;;;;4.15;3.72;;;;;;;16.01;73.74;97668.09;1716860;82;21052;-76
2021/06/12 05:48:29;;;;;;;5.22;4.72;;;;;;;16.15;73.34;97667.31;1743833;82;20957;-76
2021/06/12 05:50:55;;;;;;;14.03;10.48;;;;;;;16.27;72.93;97668.42;1744185;82;21028;-76
2021/06/12 05:53:22;;;;;;;5.87;4.78;;;;;;;16.39;73.10;97670.36;1743994;82;21394;-76
2021/06/12 05:55:49;;;;;;;12.55;4.58;;;;;;;16.50;72.92;97667.91;1744074;82;20993;-76
2021/06/12 05:58:15;;;;;;;7.47;4.03;;;;;;;16.60;71.40;97660.67;1716662;82;21016;-76
2021/06/12 06:00:42;;;;;;;5.45;4.35;;;;;;;16.72;71.46;97659.95;1715358;84;21008;-76
2021/06/12 06:03:09;;;;;;;6.03;4.70;;;;;;;16.81;71.81;97658.52;1715031;84;21103;-74
2021/06/12 06:05:36;;;;;;;4.58;4.12;;;;;;;16.91;71.46;97654.83;1716297;83;21059;-73
2021/06/12 06:08:03;;;;;;;5.65;4.00;;;;;;;17.01;71.31;97657.32;1738651;82;21048;-74
2021/06/12 06:10:29;;;;;;;5.45;4.33;;;;;;;17.09;70.33;97652.86;1744109;82;21418;-73
2021/06/12 06:13:04;;;;;;;7.83;4.70;;;;;;;17.17;70.08;97648.83;1744238;82;20969;-73
2021/06/12 06:15:31;;;;;;;6.05;4.60;;;;;;;17.25;70.02;97651.44;1744000;82;21038;-74
2021/06/12 06:17:59;;;;;;;6.12;4.33;;;;;;;17.32;67.51;97643.01;1720529;82;21040;-74
2021/06/12 06:20:26;;;;;;;5.65;4.58;;;;;;;17.37;68.53;97644.91;1714430;84;21012;-73
2021/06/12 06:22:52;;;;;;;4.47;4.08;;;;;;;17.44;68.86;97649.41;1714144;83;20985;-73
2021/06/12 06:25:19;;;;;;;5.30;4.30;;;;;;;17.49;68.36;97649.51;1714917;84;20981;-73
2021/06/12 06:27:46;;;;;;;4.40;3.98;;;;;;;17.57;68.21;97648.14;1716091;82;21044;-73
2021/06/12 06:30:14;;;;;;;5.97;4.22;;;;;;;17.63;67.86;97653.98;1716515;83;21024;-73
2021/06/12 06:32:41;;;;;;;4.62;4.12;;;;;;;17.70;67.65;97653.58;1713889;84;21068;-73
2021/06/12 06:35:12;;;;;;;5.37;4.15;;;;;;;17.77;67.67;97653.58;1712864;83;21025;-73
2021/06/12 06:37:38;;;;;;;4.97;4.42;;;;;;;17.84;67.53;97655.35;1726768;82;21076;-73
2021/06/12 06:40:07;;;;;;;6.85;4.55;;;;;;;17.89;66.27;97648.73;1713080;84;21052;-73
2021/06/12 06:42:34;;;;;;;4.90;4.37;;;;;;;17.97;66.72;97646.05;1712874;84;21028;-74
2021/06/12 06:45:00;;;;;;;5.53;3.98;;;;;;;18.04;66.77;97646.02;1713152;84;21024;-74
2021/06/12 06:47:27;;;;;;;6.90;4.30;;;;;;;18.12;66.27;97642.86;1730149;82;21458;-74
2021/06/12 06:49:56;;;;;;;6.47;4.47;;;;;;;18.18;65.61;97645.99;1730821;82;20981;-73
2021/06/12 06:52:22;;;;;;;4.80;4.20;;;;;;;18.26;65.87;97641.45;1714730;84;21005;-74
2021/06/12 06:54:49;;;;;;;5.70;4.30;;;;;;;18.36;64.58;97640.84;1717349;82;21413;-74
2021/06/12 06:57:16;;;;;;;6.55;4.22;;;;;;;18.42;63.67;97641.77;1721273;82;21071;-74
2021/06/12 06:59:43;;;;;;;5.53;4.22;;;;;;;18.49;63.83;97638.19;1714370;83;21014;-74
2021/06/12 07:02:09;;;;;;;5.92;4.35;;;;;;;18.55;63.57;97635.08;1714641;83;21004;-74
2021/06/12 07:04:37;;;;;;;4.62;4.20;;;;;;;18.62;63.74;97635.52;1714736;82;21008;-74
2021/06/12 07:07:05;;;;;;;6.12;3.72;;;;;;;18.71;63.49;97637.58;1736330;82;20976;-74
2021/06/12 07:09:32;;;;;;;6.42;3.90;;;;;;;18.79;62.39;97642.41;1713325;83;20976;-74
2021/06/12 07:12:01;;;;;;;6.00;4.25;;;;;;;18.87;61.97;97640.06;1666043;85;21098;-74
2021/06/12 07:14:30;;;;;;;4.80;4.00;;;;;;;18.95;61.21;97637.72;1659247;85;21020;-74
2021/06/12 07:16:58;;;;;;;6.75;4.37;;;;;;;19.02;61.06;97639.50;1668801;85;21020;-74
2021/06/12 07:19:25;;;;;;;6.10;4.33;;;;;;;19.09;61.32;97628.72;1662923;85;21443;-74
2021/06/12 07:21:51;;;;;;;4.80;4.03;;;;;;;19.18;61.62;97631.22;1657135;86;21431;-74
2021/06/12 07:24:18;;;;;;;5.45;3.72;;;;;;;19.27;61.31;97636.45;1658353;86;21014;-74
2021/06/12 07:26:44;;;;;;;6.30;4.50;;;;;;;19.37;61.00;97628.58;1669604;85;20986;-74
2021/06/12 07:29:12;;;;;;;4.80;4.20;;;;;;;19.47;60.95;97631.47;1657059;86;21026;-74
2021/06/12 07:31:41;;;;;;;5.87;4.33;;;;;;;19.56;60.68;97632.13;1657579;86;21056;-74
2021/06/12 07:34:09;;;;;;;6.67;4.25;;;;;;;19.64;60.67;97628.41;1658684;86;21036;-74
2021/06/12 07:36:38;;;;;;;7.28;4.60;;;;;;;19.72;60.55;97626.50;1680260;85;20971;-74
2021/06/12 07:39:06;;;;;;;4.30;3.90;;;;;;;19.81;59.95;97623.64;1680411;85;21125;-74
2021/06/12 07:41:33;;;;;;;7.28;5.22;;;;;;;19.87;59.90;97629.03;1633804;88;21011;-74
2021/06/12 07:44:00;;;;;;;14.03;9.10;;;;;;;19.93;58.82;97623.19;1632982;88;21586;-74
2021/06/12 07:46:26;;;;;;;12.93;8.70;;;;;;;19.99;58.31;97617.88;1652380;86;21013;-74
2021/06/12 07:48:53;;;;;;;8.40;5.20;;;;;;;20.03;58.55;97624.28;1660771;86;21081;-74
2021/06/12 07:51:20;;;;;;;5.42;4.87;;;;;;;20.09;58.64;97621.59;1656286;86;21045;-74
2021/06/12 07:53:46;;;;;;;7.22;4.37;;;;;;;20.16;58.38;97624.22;1632463;88;21049;-74
2021/06/12 07:56:13;;;;;;;7.92;5.12;;;;;;;20.21;57.84;97618.47;1650087;86;21108;-74
2021/06/12 07:58:40;;;;;;;6.33;4.72;;;;;;;20.28;57.62;97616.19;1660738;86;21037;-74
2021/06/12 08:01:07;;;;;;;5.83;4.37;;;;;;;20.34;57.58;97617.56;1660672;86;21129;-74
2021/06/12 08:03:35;;;;;;;7.20;4.60;;;;;;;20.40;56.96;97617.09;1660723;86;21111;-74
2021/06/12 08:06:02;;;;;;;9.93;5.20;;;;;;;20.49;57.21;97612.83;1645858;86;21025;-74
2021/06/12 08:08:29;;;;;;;6.50;5.25;;;;;;;20.57;56.44;97612.62;1633741;86;20992;-74
2021/06/12 08:10:55;;;;;;;8.38;4.40;;;;;;;20.65;56.62;97608.00;1633888;88;21086;-73
2021/06/12 08:13:23;;;;;;;5.58;4.40;;;;;;;20.76;56.58;97608.48;1632813;87;21042;-74
2021/06/12 08:15:51;;;;;;;7.58;4.53;;;;;;;20.86;56.74;97607.33;1644971;86;21080;-73
2021/06/12 08:18:18;;;;;;;7.58;4.83;;;;;;;20.95;55.44;97608.42;1660789;86;21502;-74
2021/06/12 08:20:44;;;;;;;5.72;4.40;;;;;;;21.03;54.64;97601.09;1660301;86;21041;-73
2021/06/12 08:23:11;;;;;;;6.30;4.78;;;;;;;21.08;54.64;97595.71;1660277;86;21128;-74
2021/06/12 08:25:37;;;;;;;6.35;4.58;;;;;;;21.13;54.68;97593.98;1659020;86;20969;-73
2021/06/12 08:28:05;;;;;;;6.28;4.20;;;;;;;21.18;54.01;97586.90;1660234;86;21001;-73
2021/06/12 08:30:35;;;;;;;5.55;4.37;;;;;;;21.27;54.42;97592.03;1641767;86;21524;-74
2021/06/12 08:33:07;;;;;;;6.75;4.33;;;;;;;21.34;51.43;97583.84;1633835;88;21046;-74
2021/06/12 08:35:35;;;;;;;6.40;4.42;;;;;;;21.45;49.79;97584.30;1641051;86;21041;-74
2021/06/12 08:38:03;;;;;;;5.35;4.60;;;;;;;21.54;51.26;97582.20;1660611;86;21033;-74
2021/06/12 08:40:30;;;;;;;8.68;4.87;;;;;;;21.60;50.08;97578.16;1677104;84;21427;-73
2021/06/12 08:42:57;;;;;;;6.83;4.72;;;;;;;21.66;51.85;97576.30;1688439;85;21385;-74
2021/06/12 08:45:28;;;;;;;12.60;8.78;;;;;;;21.72;52.05;97577.16;1683002;85;20962;-74
2021/06/12 08:47:57;;;;;;;10.23;6.42;;;;;;;21.81;52.07;97572.88;1714441;84;21063;-74
2021/06/12 08:50:24;;;;;;;6.40;4.65;;;;;;;21.92;52.24;97574.66;1714309;84;21041;-74
2021/06/12 08:52:55;;;;;;;9.73;4.97;;;;;;;22.00;50.64;97568.14;1714338;83;21032;-74
2021/06/12 08:55:22;;;;;;;6.47;4.25;;;;;;;22.04;50.37;97573.29;1719560;82;21031;-74
2021/06/12 08:57:51;;;;;;;8.95;3.87;;;;;;;22.07;50.30;97573.01;1722474;82;20990;-74
2021/06/12 09:00:21;;;;;;;6.45;4.22;;;;;;;22.13;49.21;97566.61;1714608;84;21080;-74
2021/06/12 09:03:22;;;;;;;5.37;4.28;;;;;;;22.22;49.95;97562.78;1712816;83;21020;-74
2021/06/12 09:05:57;;;;;;;5.72;4.20;;;;;;;22.31;50.02;97558.43;1723113;82;20945;-73
2021/06/12 09:08:28;;;;;;;5.03;4.40;;;;;;;22.33;49.74;97556.48;1726315;82;21004;-73
2021/06/12 09:11:09;;;;;;;6.58;4.20;;;;;;;22.36;49.65;97553.49;1716410;84;21059;-73
2021/06/12 09:13:50;;;;;;;5.00;4.40;;;;;;;22.40;49.78;97553.59;1716677;83;21039;-73
2021/06/12 09:16:41;;;;;;;7.62;5.17;;;;;;;22.51;50.02;97554.03;1730912;82;20973;-73
2021/06/12 09:19:23;;;;;;;6.55;5.85;;;;;;;22.58;48.45;97547.65;1740996;82;21064;-73
2021/06/12 09:22:00;;;;;;;7.42;4.47;;;;;;;22.63;48.47;97545.41;1711069;84;21076;-74
2021/06/12 09:24:39;;;;;;;4.30;3.90;;;;;;;22.80;49.03;97531.78;1716461;83;21083;-73
2021/06/12 09:27:17;;;;;;;5.87;4.28;;;;;;;22.98;48.67;97531.13;1738283;82;21093;-73
2021/06/12 09:29:48;;;;;;;5.42;4.22;;;;;;;23.14;48.67;97534.69;1718466;82;21013;-74
2021/06/12 09:32:27;;;;;;;4.85;3.95;;;;;;;23.31;48.54;97523.23;1712829;84;21021;-72
2021/06/12 09:34:58;;;;;;;7.05;5.97;;;;;;;23.46;47.79;97529.63;1712391;82;21013;-72
2021/06/12 09:37:31;;;;;;;6.83;5.08;;;;;;;23.57;46.99;97534.91;1717727;82;21021;-72
2021/06/12 09:40:16;;;;;;;5.53;4.23;;;;;;;23.69;46.71;97523.96;1730266;82;21025;-72
2021/06/12 09:42:52;;;;;;;8.43;4.17;;;;;;;23.93;46.92;97524.05;1713200;84;21433;-72
2021/06/12 09:45:33;;;;;;;7.03;4.00;;;;;;;24.17;46.70;97512.84;1715692;82;21009;-72
2021/06/12 09:48:18;;;;;;;6.03;3.95;;;;;;;24.36;46.19;97511.08;1744280;82;21012;-72
2021/06/12 09:50:47;;;;;;;5.33;4.00;;;;;;;24.54;45.70;97515.28;1744167;82;21001;-72
2021/06/12 09:53:21;;;;;;;6.55;4.22;;;;;;;24.68;45.36;97504.95;1743832;82;21084;-72
2021/06/12 09:55:49;;;;;;;4.80;4.37;;;;;;;24.76;44.12;97503.23;1715389;82;20996;-72
2021/06/12 09:58:16;;;;;;;6.37;4.10;;;;;;;24.75;44.39;97506.09;1714790;84;21500;-72
2021/06/12 10:00:47;;;;;;;8.50;4.33;;;;;;;24.69;45.22;97499.39;1714358;84;21590;-72
2021/06/12 10:03:32;;;;;;;6.72;4.00;;;;;;;24.57;44.64;97500.06;1714184;84;20973;-72
2021/06/12 10:06:24;;;;;;;7.00;4.10;;;;;;;24.56;45.24;97491.59;1713698;82;21442;-72
2021/06/12 10:08:53;;;;;;;5.55;3.83;;;;;;;24.55;43.64;97488.54;1690523;85;21059;-72
2021/06/12 10:11:25;;;;;;;5.75;4.35;;;;;;;24.67;45.18;97487.00;1710500;82;21008;-72
2021/06/12 10:13:53;;;;;;;5.25;4.53;;;;;;;24.78;43.54;97485.45;1675613;85;21101;-72
2021/06/12 10:16:24;;;;;;;4.72;4.17;;;;;;;24.88;44.46;97481.39;1664704;85;21000;-72
2021/06/12 10:18:54;;;;;;;5.25;4.12;;;;;;;24.98;44.31;97494.88;1662071;86;21073;-72
2021/06/12 10:21:22;;;;;;;4.10;3.70;;;;;;;25.24;43.37;97488.27;1664603;86;21022;-72
2021/06/12 10:23:50;;;;;;;4.58;4.08;;;;;;;25.44;43.84;97497.15;1663185;85;21380;-72
2021/06/12 10:26:21;;;;;;;4.10;3.70;;;;;;;25.46;43.52;97489.36;1658630;85;21413;-73
2021/06/12 10:28:48;;;;;;;5.90;3.90;;;;;;;25.42;43.49;97489.66;1657478;86;21471;-72
2021/06/12 10:31:24;;;;;;;4.35;3.77;;;;;;;25.35;43.47;97484.99;1658523;86;21001;-73
2021/06/12 10:33:54;;;;;;;4.05;3.70;;;;;;;25.22;44.20;97484.00;1680546;85;20998;-73
2021/06/12 10:36:27;;;;;;;6.83;3.95;;;;;;;25.24;44.60;97485.55;1658214;86;21063;-73
2021/06/12 10:38:55;;;;;;;;;;;;;;;25.30;44.72;97485.46;1642257;87;21419;-72
2021/06/12 10:41:29;;;;;;;5.33;3.58;;;;;;;25.44;42.57;97482.72;1659856;86;20165;-71
2021/06/12 10:43:59;;;;;;;3.95;3.47;;;;;;;25.60;43.57;97482.57;1663398;85;21052;-72
2021/06/12 10:46:30;;;;;;;3.95;3.62;;;;;;;25.59;43.88;97477.67;1661404;86;21005;-74
2021/06/12 10:48:59;;;;;;;5.72;3.98;;;;;;;25.59;43.83;97473.59;1660630;85;21499;-74
2021/06/12 10:51:35;;;;;;;4.37;3.62;;;;;;;25.55;43.13;97464.92;1661406;86;20965;-74
2021/06/12 10:54:26;;;;;;;5.75;4.30;;;;;;;25.59;42.58;97463.23;1684105;85;20994;-73
2021/06/12 10:57:05;;;;;;;4.28;3.87;;;;;;;26.91;41.69;97452.52;1688846;85;21014;-74
2021/06/12 10:59:49;;;;;;;5.60;4.35;;;;;;;27.61;40.82;97452.44;1661301;85;21025;-74
2021/06/12 11:02:28;;;;;;;9.88;6.83;;;;;;;27.42;39.90;97450.33;1647531;85;20966;-74
2021/06/12 11:05:01;;;;;;;3.92;3.22;;;;;;;27.09;39.60;97459.25;1662089;85;21014;-73
2021/06/12 11:07:45;;;;;;;5.80;3.45;;;;;;;26.58;39.42;97461.85;1661096;86;21419;-73
2021/06/12 11:10:18;;;;;;;4.28;3.35;;;;;;;26.23;42.28;97476.69;1661213;86;21080;-73
2021/06/12 11:12:56;;;;;;;3.22;2.92;;;;;;;25.54;40.56;97479.44;1668992;85;20990;-73
2021/06/12 11:15:27;;;;;;;3.27;2.98;;;;;;;25.09;41.39;97471.67;1688872;85;21002;-73
2021/06/12 11:18:22;;;;;;;3.27;2.98;;;;;;;24.77;43.17;97471.06;1689061;85;21399;-74
2021/06/12 11:21:03;;;;;;;3.15;2.95;;;;;;;24.72;43.21;97463.89;1688655;85;21018;-73
2021/06/12 11:23:53;;;;;;;4.20;3.33;;;;;;;24.79;44.27;97461.44;1672963;85;21051;-73
2021/06/12 11:26:19;;;;;;;4.00;3.15;;;;;;;24.65;44.81;97461.41;1618269;88;20985;-74
2021/06/12 11:28:48;;;;;;;3.90;3.45;;;;;;;24.35;42.96;97462.86;1653123;86;21477;-73
2021/06/12 11:31:29;;;;;;;6.05;3.40;;;;;;;24.16;43.31;97464.25;1660486;86;20978;-73
2021/06/12 11:34:17;;;;;;;6.17;3.17;;;;;;;23.89;43.79;97476.13;1681445;85;20998;-73
2021/06/12 11:36:47;;;;;;;6.92;2.80;;;;;;;23.08;44.61;97483.38;1689079;85;20998;-73
2021/06/12 11:39:14;;;;;;;4.60;2.60;;;;;;;22.71;45.23;97477.21;1671400;85;20988;-71
2021/06/12 11:41:41;;;;;;;5.83;3.08;;;;;;;22.86;44.98;97475.84;1660833;85;21016;-73
2021/06/12 11:44:08;;;;;;;4.00;2.87;;;;;;;23.07;45.74;97475.78;1663650;85;20986;-73
2021/06/12 11:46:43;;;;;;;4.85;3.08;;;;;;;22.81;46.91;97499.23;1661266;86;20992;-73